Terminal Aerodrome Forecast
Issued by NWS

Home | Current Version | Previous Version | Text Only | Print | Product List | Glossary On
Versions: 1 2 3 4 5 6 7 8 9 10 11 12 13 14 15 16
000
FTAK31 PAJN 272300 CCA
TAFAWG
TAF COR
PAWG 272345Z 2800/2824 VRB04KT P6SM -RA FEW005 BKN040 OVC060
      TEMPO 2803/2806 5SM -RA BR FEW002 SCT005 BKN025
     FM280600 09006KT 6SM -RA BR SCT020 BKN035 OVC050
     FM280900 VRB03KT 3SM -RA BR SCT006 BKN010 OVC025
     FM281200 VRB04KT 6SM -RA SCT015 SCT025 OVC050
     FM281500 VRB04KT P6SM -RA OVC050
      TEMPO 2816/2820 4SM -RA BR BKN020 OVC040
     FM282100 10006KT P6SM -RA OVC050
      AMD LTD TO CLD VIS AND WIND 2806/2815=

USA.gov is the U.S. government's official web portal to all federal, state and local government web resources and services.